EWR weather

Newark Liberty International Airport
Newark, New Jersey, United States

Public forecast

Using degrees Fahrenheit for public forecast. Weather courtesy of forecast.io.

METAR (pilot weather report)

Retrieved 2019/02/17 12:51 UTC (42 minutes ago):

KEWR 171251Z 02009KT 10SM FEW180 FEW250 M03/M09 A3015 RMK AO2 SLP209 T10281094

TAF (pilot weather forecast)

Retrieved 2019/02/17 12:06 UTC (1 hour ago):

TAF KEWR 171202Z 1712/1818 01007KT P6SM FEW250 FM171800 11004KT P6SM SCT250 FM172000 16006KT P6SM SCT100 BKN200 FM180300 09005KT 3SM -SNPL BR BKN015 OVC025 FM180700 05009KT 2SM -PLRA BR BKN008 FM180900 04011KT 2SM -RA BR BKN006 FM181200 03006KT 3SM -DZ BR OVC010 FM181500 36005KT 5SM -DZ BR OVC015 FM181700 33005KT P6SM BKN020 OVC030